createdAt,value
2017-12-27T00:04:51.042Z,1.16
2017-12-27T00:15:18.350Z,1.11
2017-12-27T00:25:45.647Z,1.52
2017-12-27T00:36:12.798Z,1.12
2017-12-27T00:46:40.054Z,0.63
2017-12-27T00:57:06.879Z,0.46
2017-12-27T01:07:33.981Z,0.35
2017-12-27T01:18:00.767Z,0.74
2017-12-27T01:28:27.686Z,0.77
2017-12-27T01:38:54.673Z,0.73
2017-12-27T01:49:21.676Z,0.78
2017-12-27T01:59:48.651Z,0.76
2017-12-27T02:10:15.579Z,0.82
2017-12-27T02:20:42.042Z,1.08
2017-12-27T02:31:09.521Z,0.92
2017-12-27T02:41:36.538Z,1.19
2017-12-27T02:52:03.911Z,1.13
2017-12-27T03:02:30.629Z,1.05
2017-12-27T03:12:58.219Z,1.23
2017-12-27T03:23:24.780Z,1.16
2017-12-27T03:33:51.328Z,0.96
2017-12-27T03:44:18.880Z,1.35
2017-12-27T03:54:45.366Z,1.39
2017-12-27T04:05:12.637Z,1.78
2017-12-27T04:15:40.104Z,1.91
2017-12-27T04:26:07.226Z,1.78
2017-12-27T04:36:33.929Z,1.86
2017-12-27T04:47:01.089Z,2.24
2017-12-27T04:57:28.813Z,2.34
2017-12-27T05:07:56.066Z,2.29
2017-12-27T05:18:23.284Z,2.63
2017-12-27T05:28:50.176Z,2.84
2017-12-27T05:39:17.949Z,2.91
2017-12-27T05:49:44.854Z,2.99
2017-12-27T06:00:12.216Z,3.10
2017-12-27T06:10:40.128Z,3.09
2017-12-27T06:21:07.557Z,3.09
2017-12-27T06:31:35.019Z,3.06
2017-12-27T06:42:02.453Z,2.99
2017-12-27T06:52:29.873Z,2.79
2017-12-27T07:02:57.250Z,2.78
2017-12-27T07:13:24.628Z,2.68
2017-12-27T07:23:52.014Z,2.68
2017-12-27T07:34:19.446Z,2.72
2017-12-27T07:44:46.796Z,2.69
2017-12-27T07:55:14.302Z,2.77
2017-12-27T08:05:41.605Z,2.78
2017-12-27T08:16:08.488Z,2.85
2017-12-27T08:26:36.374Z,3.03
2017-12-27T08:37:03.830Z,3.21
2017-12-27T08:48:44.172Z,3.38
2017-12-27T08:59:10.601Z,3.52
2017-12-27T09:09:38.181Z,3.70
2017-12-27T09:20:06.737Z,4.00
2017-12-27T09:30:33.391Z,4.11
2017-12-27T09:41:01.518Z,4.59
2017-12-27T09:51:29.902Z,4.86
2017-12-27T10:01:56.709Z,4.96
2017-12-27T10:12:24.649Z,5.21
2017-12-27T10:22:52.649Z,5.55
2017-12-27T10:33:20.553Z,5.94
2017-12-27T10:43:48.725Z,5.92
2017-12-27T10:54:16.758Z,6.30
2017-12-27T11:04:44.989Z,6.52
2017-12-27T11:15:13.282Z,6.63
2017-12-27T11:25:41.548Z,6.40
2017-12-27T11:36:09.982Z,6.53
2017-12-27T11:46:38.109Z,6.63
2017-12-27T11:57:06.298Z,6.38
2017-12-27T12:07:34.558Z,6.42
2017-12-27T12:18:02.788Z,6.30
2017-12-27T12:28:30.979Z,6.53
2017-12-27T12:38:59.228Z,6.86
2017-12-27T12:59:55.957Z,6.82
2017-12-27T13:10:24.287Z,6.71
2017-12-27T13:31:20.959Z,6.84
2017-12-27T13:41:49.235Z,6.71
2017-12-27T13:52:17.246Z,6.67
2017-12-27T14:02:45.729Z,6.57
2017-12-27T14:13:13.927Z,6.73
2017-12-27T14:23:42.031Z,6.65
2017-12-27T14:34:10.644Z,6.57
2017-12-27T14:44:38.523Z,6.42
2017-12-27T14:55:06.509Z,6.30
2017-12-27T15:05:34.603Z,6.28
2017-12-27T15:16:02.726Z,6.17
2017-12-27T15:26:30.951Z,6.17
2017-12-27T15:36:58.843Z,6.07
2017-12-27T15:47:26.840Z,6.01
2017-12-27T15:57:54.370Z,6.01
2017-12-27T16:08:22.867Z,6.05
2017-12-27T16:18:50.907Z,6.01
2017-12-27T16:29:18.965Z,5.98
2017-12-27T16:39:46.908Z,5.94
2017-12-27T16:50:14.944Z,5.94
2017-12-27T17:00:42.894Z,5.92
2017-12-27T17:11:10.838Z,5.86
2017-12-27T17:21:38.832Z,5.82
2017-12-27T17:32:06.965Z,5.36
2017-12-27T17:42:34.739Z,4.92
2017-12-27T17:53:02.619Z,4.73
2017-12-27T18:03:30.471Z,4.96
2017-12-27T18:13:58.318Z,4.57
2017-12-27T18:24:26.161Z,4.59
2017-12-27T18:34:53.922Z,4.28
2017-12-27T18:45:21.687Z,4.50
2017-12-27T18:55:49.434Z,4.82
2017-12-27T19:06:17.233Z,4.84
2017-12-27T19:16:45.027Z,4.80
2017-12-27T19:27:13.080Z,4.86
2017-12-27T19:37:40.646Z,4.94
2017-12-27T19:48:08.500Z,4.90
2017-12-27T19:58:36.285Z,5.05
2017-12-27T20:09:04.176Z,5.11
2017-12-27T20:19:31.927Z,5.09
2017-12-27T20:29:59.752Z,5.03
2017-12-27T20:40:27.593Z,5.05
2017-12-27T20:50:55.392Z,4.94
2017-12-27T21:01:23.160Z,4.94
2017-12-27T21:11:51.060Z,4.86
2017-12-27T21:22:18.780Z,4.80
2017-12-27T21:32:46.556Z,4.73
2017-12-27T21:43:14.302Z,4.57
2017-12-27T21:53:42.223Z,4.40
2017-12-27T22:04:09.783Z,4.01
2017-12-27T22:14:37.446Z,4.30
2017-12-27T22:25:05.128Z,4.30
2017-12-27T22:35:32.775Z,4.09
2017-12-27T22:46:00.511Z,4.32
2017-12-27T22:56:28.196Z,4.44
2017-12-27T23:06:55.747Z,4.59
2017-12-27T23:17:23.781Z,4.67
2017-12-27T23:27:51.351Z,4.71
2017-12-27T23:38:19.090Z,4.71
2017-12-27T23:48:46.618Z,4.73
2017-12-27T23:59:14.407Z,4.67
